sensor_id;sensor_type;location;lat;lon;timestamp;temperature;humidity
16038;DHT22;8123;50.906;6.172;2022-10-31T00:00:51;14.80;99.90
16038;DHT22;8123;50.906;6.172;2022-10-31T00:03:17;15.10;99.90
16038;DHT22;8123;50.906;6.172;2022-10-31T00:05:48;14.80;99.90
16038;DHT22;8123;50.906;6.172;2022-10-31T00:08:15;14.80;99.90
16038;DHT22;8123;50.906;6.172;2022-10-31T00:10:42;14.80;99.90
16038;DHT22;8123;50.906;6.172;2022-10-31T00:13:09;14.80;99.90
16038;DHT22;8123;50.906;6.172;2022-10-31T00:15:39;14.90;99.90
16038;DHT22;8123;50.906;6.172;2022-10-31T00:18:06;14.90;99.90
16038;DHT22;8123;50.906;6.172;2022-10-31T00:20:32;14.90;99.90
16038;DHT22;8123;50.906;6.172;2022-10-31T00:23:02;14.90;99.90
16038;DHT22;8123;50.906;6.172;2022-10-31T00:25:29;15.00;99.90
16038;DHT22;8123;50.906;6.172;2022-10-31T00:27:57;14.90;99.90
16038;DHT22;8123;50.906;6.172;2022-10-31T00:30:23;15.00;99.90
16038;DHT22;8123;50.906;6.172;2022-10-31T00:32:48;14.90;99.90
16038;DHT22;8123;50.906;6.172;2022-10-31T00:35:14;15.00;99.90
16038;DHT22;8123;50.906;6.172;2022-10-31T00:37:40;14.90;99.90
16038;DHT22;8123;50.906;6.172;2022-10-31T00:40:06;14.90;99.90
16038;DHT22;8123;50.906;6.172;2022-10-31T00:42:32;14.90;99.90
16038;DHT22;8123;50.906;6.172;2022-10-31T00:44:57;14.80;99.90
16038;DHT22;8123;50.906;6.172;2022-10-31T00:47:23;14.80;99.90
16038;DHT22;8123;50.906;6.172;2022-10-31T00:49:48;14.80;99.90
16038;DHT22;8123;50.906;6.172;2022-10-31T00:52:14;14.80;99.90
16038;DHT22;8123;50.906;6.172;2022-10-31T00:54:40;14.70;99.90
16038;DHT22;8123;50.906;6.172;2022-10-31T00:57:05;14.70;99.90
16038;DHT22;8123;50.906;6.172;2022-10-31T00:59:31;14.70;99.90
16038;DHT22;8123;50.906;6.172;2022-10-31T01:01:56;14.70;99.90
16038;DHT22;8123;50.906;6.172;2022-10-31T01:04:22;14.60;99.90
16038;DHT22;8123;50.906;6.172;2022-10-31T01:06:48;14.50;99.90
16038;DHT22;8123;50.906;6.172;2022-10-31T01:09:13;14.40;99.90
16038;DHT22;8123;50.906;6.172;2022-10-31T01:11:39;14.50;99.90
16038;DHT22;8123;50.906;6.172;2022-10-31T01:14:04;14.40;99.90
16038;DHT22;8123;50.906;6.172;2022-10-31T01:16:30;14.30;99.90
16038;DHT22;8123;50.906;6.172;2022-10-31T01:18:56;14.30;99.90
16038;DHT22;8123;50.906;6.172;2022-10-31T01:21:24;14.20;99.90
16038;DHT22;8123;50.906;6.172;2022-10-31T01:23:51;14.00;99.90
16038;DHT22;8123;50.906;6.172;2022-10-31T01:26:29;14.00;99.90
16038;DHT22;8123;50.906;6.172;2022-10-31T01:29:07;14.00;99.90
16038;DHT22;8123;50.906;6.172;2022-10-31T01:31:38;13.90;99.90
16038;DHT22;8123;50.906;6.172;2022-10-31T01:34:05;13.80;99.90
16038;DHT22;8123;50.906;6.172;2022-10-31T01:36:36;13.80;99.90
16038;DHT22;8123;50.906;6.172;2022-10-31T01:39:09;13.80;99.90
16038;DHT22;8123;50.906;6.172;2022-10-31T01:41:37;13.90;99.90
16038;DHT22;8123;50.906;6.172;2022-10-31T01:46:47;13.80;99.90
16038;DHT22;8123;50.906;6.172;2022-10-31T01:52:09;13.70;99.90
16038;DHT22;8123;50.906;6.172;2022-10-31T01:54:49;13.60;99.90
16038;DHT22;8123;50.906;6.172;2022-10-31T01:57:18;13.70;99.90
16038;DHT22;8123;50.906;6.172;2022-10-31T01:59:48;13.80;99.90
16038;DHT22;8123;50.906;6.172;2022-10-31T02:02:17;13.80;99.90
16038;DHT22;8123;50.906;6.172;2022-10-31T02:04:44;13.80;99.90
16038;DHT22;8123;50.906;6.172;2022-10-31T02:07:14;13.80;99.90
16038;DHT22;8123;50.906;6.172;2022-10-31T02:09:42;13.90;99.90
16038;DHT22;8123;50.906;6.172;2022-10-31T02:12:10;13.90;99.90
16038;DHT22;8123;50.906;6.172;2022-10-31T02:14:36;14.00;99.90
16038;DHT22;8123;50.906;6.172;2022-10-31T02:17:03;14.00;99.90
16038;DHT22;8123;50.906;6.172;2022-10-31T02:19:56;14.00;99.90
16038;DHT22;8123;50.906;6.172;2022-10-31T02:22:36;14.10;99.90
16038;DHT22;8123;50.906;6.172;2022-10-31T02:25:35;14.20;99.90
16038;DHT22;8123;50.906;6.172;2022-10-31T02:34:01;14.30;99.90
16038;DHT22;8123;50.906;6.172;2022-10-31T02:36:46;14.30;99.90
16038;DHT22;8123;50.906;6.172;2022-10-31T02:39:23;14.40;99.90
16038;DHT22;8123;50.906;6.172;2022-10-31T02:44:30;14.40;99.90
16038;DHT22;8123;50.906;6.172;2022-10-31T02:47:06;14.40;99.90
16038;DHT22;8123;50.906;6.172;2022-10-31T02:54:45;14.40;99.90
16038;DHT22;8123;50.906;6.172;2022-10-31T02:57:13;14.30;99.90
16038;DHT22;8123;50.906;6.172;2022-10-31T02:59:46;14.20;99.90
16038;DHT22;8123;50.906;6.172;2022-10-31T03:15:55;14.00;99.90
16038;DHT22;8123;50.906;6.172;2022-10-31T03:18:30;13.90;99.90
16038;DHT22;8123;50.906;6.172;2022-10-31T03:21:14;13.80;99.90
16038;DHT22;8123;50.906;6.172;2022-10-31T03:23:44;13.70;99.90
16038;DHT22;8123;50.906;6.172;2022-10-31T03:26:12;13.70;99.90
16038;DHT22;8123;50.906;6.172;2022-10-31T03:28:50;13.60;99.90
16038;DHT22;8123;50.906;6.172;2022-10-31T03:31:18;13.60;99.90
16038;DHT22;8123;50.906;6.172;2022-10-31T03:33:45;13.50;99.90
16038;DHT22;8123;50.906;6.172;2022-10-31T03:36:14;13.40;99.90
16038;DHT22;8123;50.906;6.172;2022-10-31T03:38:41;13.40;99.90
16038;DHT22;8123;50.906;6.172;2022-10-31T03:41:12;13.30;99.90
16038;DHT22;8123;50.906;6.172;2022-10-31T03:43:43;13.30;99.90
16038;DHT22;8123;50.906;6.172;2022-10-31T03:46:11;13.30;99.90
16038;DHT22;8123;50.906;6.172;2022-10-31T03:48:37;13.30;99.90
16038;DHT22;8123;50.906;6.172;2022-10-31T03:53:41;13.30;99.90
16038;DHT22;8123;50.906;6.172;2022-10-31T03:56:27;13.40;99.90
16038;DHT22;8123;50.906;6.172;2022-10-31T03:59:17;13.30;99.90
16038;DHT22;8123;50.906;6.172;2022-10-31T04:01:46;13.30;99.90
16038;DHT22;8123;50.906;6.172;2022-10-31T04:04:13;13.20;99.90
16038;DHT22;8123;50.906;6.172;2022-10-31T04:06:42;13.20;99.90
16038;DHT22;8123;50.906;6.172;2022-10-31T04:09:09;13.20;99.90
16038;DHT22;8123;50.906;6.172;2022-10-31T04:11:40;13.20;99.90
16038;DHT22;8123;50.906;6.172;2022-10-31T04:14:08;13.20;99.90
16038;DHT22;8123;50.906;6.172;2022-10-31T04:16:34;13.10;99.90
16038;DHT22;8123;50.906;6.172;2022-10-31T04:19:00;13.10;99.90
16038;DHT22;8123;50.906;6.172;2022-10-31T04:21:29;13.00;99.90
16038;DHT22;8123;50.906;6.172;2022-10-31T04:23:56;13.00;99.90
16038;DHT22;8123;50.906;6.172;2022-10-31T04:26:21;13.00;99.90
16038;DHT22;8123;50.906;6.172;2022-10-31T04:28:47;13.00;99.90
16038;DHT22;8123;50.906;6.172;2022-10-31T04:31:13;13.00;99.90
16038;DHT22;8123;50.906;6.172;2022-10-31T04:33:39;12.90;99.90
16038;DHT22;8123;50.906;6.172;2022-10-31T04:36:05;12.90;99.90
16038;DHT22;8123;50.906;6.172;2022-10-31T04:38:31;12.90;99.90
16038;DHT22;8123;50.906;6.172;2022-10-31T04:40:56;12.90;99.90
16038;DHT22;8123;50.906;6.172;2022-10-31T04:43:22;12.90;99.90
16038;DHT22;8123;50.906;6.172;2022-10-31T04:45:48;12.80;99.90
16038;DHT22;8123;50.906;6.172;2022-10-31T04:48:14;12.90;99.90
16038;DHT22;8123;50.906;6.172;2022-10-31T04:50:40;12.80;99.90
16038;DHT22;8123;50.906;6.172;2022-10-31T04:53:06;12.80;99.90
16038;DHT22;8123;50.906;6.172;2022-10-31T04:55:32;12.80;99.90
16038;DHT22;8123;50.906;6.172;2022-10-31T04:57:57;12.80;99.90
16038;DHT22;8123;50.906;6.172;2022-10-31T05:00:24;12.80;99.90
16038;DHT22;8123;50.906;6.172;2022-10-31T05:02:55;12.70;99.90
16038;DHT22;8123;50.906;6.172;2022-10-31T05:05:24;12.70;99.90
16038;DHT22;8123;50.906;6.172;2022-10-31T05:07:50;12.80;99.90
16038;DHT22;8123;50.906;6.172;2022-10-31T05:10:19;12.90;99.90
16038;DHT22;8123;50.906;6.172;2022-10-31T05:12:48;12.80;99.90
16038;DHT22;8123;50.906;6.172;2022-10-31T05:15:15;12.80;99.90
16038;DHT22;8123;50.906;6.172;2022-10-31T05:17:41;12.80;99.90
16038;DHT22;8123;50.906;6.172;2022-10-31T05:20:07;12.70;99.90
16038;DHT22;8123;50.906;6.172;2022-10-31T05:22:32;12.80;99.90
16038;DHT22;8123;50.906;6.172;2022-10-31T05:24:58;12.80;99.90
16038;DHT22;8123;50.906;6.172;2022-10-31T05:27:24;12.70;99.90
16038;DHT22;8123;50.906;6.172;2022-10-31T05:29:49;12.70;99.90
16038;DHT22;8123;50.906;6.172;2022-10-31T05:32:15;12.70;99.90
16038;DHT22;8123;50.906;6.172;2022-10-31T05:34:40;12.70;99.90
16038;DHT22;8123;50.906;6.172;2022-10-31T05:37:06;12.70;99.90
16038;DHT22;8123;50.906;6.172;2022-10-31T05:39:32;12.70;99.90
16038;DHT22;8123;50.906;6.172;2022-10-31T05:41:57;12.60;99.90
16038;DHT22;8123;50.906;6.172;2022-10-31T05:44:23;12.60;99.90
16038;DHT22;8123;50.906;6.172;2022-10-31T05:46:48;12.60;99.90
16038;DHT22;8123;50.906;6.172;2022-10-31T05:49:14;12.60;99.90
16038;DHT22;8123;50.906;6.172;2022-10-31T05:51:40;12.60;99.90
16038;DHT22;8123;50.906;6.172;2022-10-31T05:54:05;12.60;99.90
16038;DHT22;8123;50.906;6.172;2022-10-31T05:56:31;12.70;99.90
16038;DHT22;8123;50.906;6.172;2022-10-31T05:58:57;12.70;99.90
16038;DHT22;8123;50.906;6.172;2022-10-31T06:01:22;12.70;99.90
16038;DHT22;8123;50.906;6.172;2022-10-31T06:03:48;12.70;99.90
16038;DHT22;8123;50.906;6.172;2022-10-31T06:06:13;12.80;99.90
16038;DHT22;8123;50.906;6.172;2022-10-31T06:08:40;12.80;99.90
16038;DHT22;8123;50.906;6.172;2022-10-31T06:11:05;12.80;99.90
16038;DHT22;8123;50.906;6.172;2022-10-31T06:13:31;12.80;99.90
16038;DHT22;8123;50.906;6.172;2022-10-31T06:15:56;12.80;99.90
16038;DHT22;8123;50.906;6.172;2022-10-31T06:18:22;12.70;99.90
16038;DHT22;8123;50.906;6.172;2022-10-31T06:20:48;12.80;99.90
16038;DHT22;8123;50.906;6.172;2022-10-31T06:23:13;12.80;99.90
16038;DHT22;8123;50.906;6.172;2022-10-31T06:25:39;12.80;99.90
16038;DHT22;8123;50.906;6.172;2022-10-31T06:28:05;12.70;99.90
16038;DHT22;8123;50.906;6.172;2022-10-31T06:30:31;12.70;99.90
16038;DHT22;8123;50.906;6.172;2022-10-31T06:33:05;12.70;99.90
16038;DHT22;8123;50.906;6.172;2022-10-31T06:35:31;12.70;99.90
16038;DHT22;8123;50.906;6.172;2022-10-31T06:37:56;12.60;99.90
16038;DHT22;8123;50.906;6.172;2022-10-31T06:40:22;12.60;99.90
16038;DHT22;8123;50.906;6.172;2022-10-31T06:42:56;12.60;99.90
16038;DHT22;8123;50.906;6.172;2022-10-31T06:45:22;12.60;99.90
16038;DHT22;8123;50.906;6.172;2022-10-31T06:47:55;12.60;99.90
16038;DHT22;8123;50.906;6.172;2022-10-31T06:50:21;12.50;99.90
16038;DHT22;8123;50.906;6.172;2022-10-31T06:52:55;12.60;99.90
16038;DHT22;8123;50.906;6.172;2022-10-31T06:55:21;12.60;99.90
16038;DHT22;8123;50.906;6.172;2022-10-31T06:57:59;12.60;99.90
16038;DHT22;8123;50.906;6.172;2022-10-31T07:00:26;12.60;99.90
16038;DHT22;8123;50.906;6.172;2022-10-31T07:03:03;12.60;99.90
16038;DHT22;8123;50.906;6.172;2022-10-31T07:05:30;12.60;99.90
16038;DHT22;8123;50.906;6.172;2022-10-31T07:08:00;12.60;99.90
16038;DHT22;8123;50.906;6.172;2022-10-31T07:10:28;12.60;99.90
16038;DHT22;8123;50.906;6.172;2022-10-31T07:12:58;12.50;99.90
16038;DHT22;8123;50.906;6.172;2022-10-31T07:15:25;12.60;99.90
16038;DHT22;8123;50.906;6.172;2022-10-31T07:17:51;12.60;99.90
16038;DHT22;8123;50.906;6.172;2022-10-31T07:20:17;12.60;99.90
16038;DHT22;8123;50.906;6.172;2022-10-31T07:22:43;12.70;99.90
16038;DHT22;8123;50.906;6.172;2022-10-31T07:25:09;12.70;99.90
16038;DHT22;8123;50.906;6.172;2022-10-31T07:27:40;12.70;99.90
16038;DHT22;8123;50.906;6.172;2022-10-31T07:30:07;12.70;99.90
16038;DHT22;8123;50.906;6.172;2022-10-31T07:32:44;12.70;99.90
16038;DHT22;8123;50.906;6.172;2022-10-31T07:35:12;12.70;99.90
16038;DHT22;8123;50.906;6.172;2022-10-31T07:37:38;12.80;99.90
16038;DHT22;8123;50.906;6.172;2022-10-31T07:40:05;12.80;99.90
16038;DHT22;8123;50.906;6.172;2022-10-31T07:42:39;12.80;99.90
16038;DHT22;8123;50.906;6.172;2022-10-31T07:45:06;12.90;99.90
16038;DHT22;8123;50.906;6.172;2022-10-31T07:47:47;12.90;99.90
16038;DHT22;8123;50.906;6.172;2022-10-31T07:50:16;12.90;99.90
16038;DHT22;8123;50.906;6.172;2022-10-31T07:52:42;13.00;99.90
16038;DHT22;8123;50.906;6.172;2022-10-31T07:55:09;13.00;99.90
16038;DHT22;8123;50.906;6.172;2022-10-31T07:57:35;13.10;99.90
16038;DHT22;8123;50.906;6.172;2022-10-31T08:00:06;13.00;99.90
16038;DHT22;8123;50.906;6.172;2022-10-31T08:02:33;13.10;99.90
16038;DHT22;8123;50.906;6.172;2022-10-31T08:04:58;13.10;99.90
16038;DHT22;8123;50.906;6.172;2022-10-31T08:07:25;13.10;99.90
16038;DHT22;8123;50.906;6.172;2022-10-31T08:09:52;13.20;99.90
16038;DHT22;8123;50.906;6.172;2022-10-31T08:12:17;13.20;99.90
16038;DHT22;8123;50.906;6.172;2022-10-31T08:14:43;13.20;99.90
16038;DHT22;8123;50.906;6.172;2022-10-31T08:17:10;13.20;99.90
16038;DHT22;8123;50.906;6.172;2022-10-31T08:19:36;13.20;99.90
16038;DHT22;8123;50.906;6.172;2022-10-31T08:22:01;13.20;99.90
16038;DHT22;8123;50.906;6.172;2022-10-31T08:24:27;13.30;99.90
16038;DHT22;8123;50.906;6.172;2022-10-31T08:26:53;13.40;99.90
16038;DHT22;8123;50.906;6.172;2022-10-31T08:29:18;13.50;99.90
16038;DHT22;8123;50.906;6.172;2022-10-31T08:31:44;13.60;99.90
16038;DHT22;8123;50.906;6.172;2022-10-31T08:34:09;13.70;99.90
16038;DHT22;8123;50.906;6.172;2022-10-31T08:36:35;13.70;99.90
16038;DHT22;8123;50.906;6.172;2022-10-31T08:39:01;13.80;99.90
16038;DHT22;8123;50.906;6.172;2022-10-31T08:41:28;13.90;99.90
16038;DHT22;8123;50.906;6.172;2022-10-31T08:43:53;13.90;99.90
16038;DHT22;8123;50.906;6.172;2022-10-31T08:46:19;14.00;99.90
16038;DHT22;8123;50.906;6.172;2022-10-31T08:48:47;14.10;99.90
16038;DHT22;8123;50.906;6.172;2022-10-31T08:51:13;14.20;99.90
16038;DHT22;8123;50.906;6.172;2022-10-31T08:53:38;14.30;99.90
16038;DHT22;8123;50.906;6.172;2022-10-31T08:56:04;14.40;99.90
16038;DHT22;8123;50.906;6.172;2022-10-31T08:58:30;14.50;99.90
16038;DHT22;8123;50.906;6.172;2022-10-31T09:00:55;14.70;99.90
16038;DHT22;8123;50.906;6.172;2022-10-31T09:03:23;14.80;99.90
16038;DHT22;8123;50.906;6.172;2022-10-31T09:05:49;14.90;99.90
16038;DHT22;8123;50.906;6.172;2022-10-31T09:08:16;15.00;99.90
16038;DHT22;8123;50.906;6.172;2022-10-31T09:10:42;15.10;99.90
16038;DHT22;8123;50.906;6.172;2022-10-31T09:13:16;15.20;99.90
16038;DHT22;8123;50.906;6.172;2022-10-31T09:15:44;15.30;99.90
16038;DHT22;8123;50.906;6.172;2022-10-31T09:18:11;15.40;99.90
16038;DHT22;8123;50.906;6.172;2022-10-31T09:20:38;15.50;99.90
16038;DHT22;8123;50.906;6.172;2022-10-31T09:23:10;15.70;99.90
16038;DHT22;8123;50.906;6.172;2022-10-31T09:25:36;15.60;99.90
16038;DHT22;8123;50.906;6.172;2022-10-31T09:28:04;15.70;99.90
16038;DHT22;8123;50.906;6.172;2022-10-31T09:30:31;15.70;99.90
16038;DHT22;8123;50.906;6.172;2022-10-31T09:32:59;15.80;99.90
16038;DHT22;8123;50.906;6.172;2022-10-31T09:35:25;15.80;99.90
16038;DHT22;8123;50.906;6.172;2022-10-31T09:37:56;15.90;99.90
16038;DHT22;8123;50.906;6.172;2022-10-31T09:40:25;15.90;99.90
16038;DHT22;8123;50.906;6.172;2022-10-31T09:42:59;16.00;99.90
16038;DHT22;8123;50.906;6.172;2022-10-31T09:45:49;16.10;99.90
16038;DHT22;8123;50.906;6.172;2022-10-31T09:53:54;16.20;99.90
16038;DHT22;8123;50.906;6.172;2022-10-31T09:56:23;16.20;99.90
16038;DHT22;8123;50.906;6.172;2022-10-31T09:59:01;16.30;99.90
16038;DHT22;8123;50.906;6.172;2022-10-31T10:01:48;16.30;99.90
16038;DHT22;8123;50.906;6.172;2022-10-31T10:04:41;16.30;99.90
16038;DHT22;8123;50.906;6.172;2022-10-31T10:10:17;16.40;99.90
16038;DHT22;8123;50.906;6.172;2022-10-31T10:12:48;16.40;99.90
16038;DHT22;8123;50.906;6.172;2022-10-31T10:26:13;16.70;99.90
16038;DHT22;8123;50.906;6.172;2022-10-31T10:28:44;16.80;99.90
16038;DHT22;8123;50.906;6.172;2022-10-31T10:31:40;16.80;99.90
16038;DHT22;8123;50.906;6.172;2022-10-31T10:34:30;16.80;99.90
16038;DHT22;8123;50.906;6.172;2022-10-31T10:37:03;16.90;99.90
16038;DHT22;8123;50.906;6.172;2022-10-31T10:41:58;17.00;99.90
16038;DHT22;8123;50.906;6.172;2022-10-31T10:44:48;17.00;99.90
16038;DHT22;8123;50.906;6.172;2022-10-31T10:47:43;17.10;99.90
16038;DHT22;8123;50.906;6.172;2022-10-31T10:50:22;17.10;99.90
16038;DHT22;8123;50.906;6.172;2022-10-31T10:58:30;17.00;99.90
16038;DHT22;8123;50.906;6.172;2022-10-31T11:00:56;17.40;99.90
16038;DHT22;8123;50.906;6.172;2022-10-31T11:03:21;17.40;99.90
16038;DHT22;8123;50.906;6.172;2022-10-31T11:05:50;17.50;99.90
16038;DHT22;8123;50.906;6.172;2022-10-31T11:08:24;17.50;99.90
16038;DHT22;8123;50.906;6.172;2022-10-31T11:13:44;17.70;99.90
16038;DHT22;8123;50.906;6.172;2022-10-31T11:16:14;17.80;99.90
16038;DHT22;8123;50.906;6.172;2022-10-31T11:18:46;17.90;99.90
16038;DHT22;8123;50.906;6.172;2022-10-31T11:21:25;17.90;99.90
16038;DHT22;8123;50.906;6.172;2022-10-31T11:26:37;17.90;99.90
16038;DHT22;8123;50.906;6.172;2022-10-31T11:29:05;18.00;99.90
16038;DHT22;8123;50.906;6.172;2022-10-31T11:31:36;18.10;99.90
16038;DHT22;8123;50.906;6.172;2022-10-31T11:34:04;18.10;99.90
16038;DHT22;8123;50.906;6.172;2022-10-31T11:36:31;18.20;99.90
16038;DHT22;8123;50.906;6.172;2022-10-31T11:38:59;18.30;99.90
16038;DHT22;8123;50.906;6.172;2022-10-31T11:41:36;18.30;99.90
16038;DHT22;8123;50.906;6.172;2022-10-31T11:44:17;18.30;99.90
16038;DHT22;8123;50.906;6.172;2022-10-31T11:46:49;18.30;99.90
16038;DHT22;8123;50.906;6.172;2022-10-31T11:51:58;18.30;99.90
16038;DHT22;8123;50.906;6.172;2022-10-31T11:54:28;18.40;99.90
16038;DHT22;8123;50.906;6.172;2022-10-31T11:56:55;18.30;99.90
16038;DHT22;8123;50.906;6.172;2022-10-31T11:59:29;18.40;99.90
16038;DHT22;8123;50.906;6.172;2022-10-31T12:01:57;18.40;99.90
16038;DHT22;8123;50.906;6.172;2022-10-31T12:04:33;18.50;99.90
16038;DHT22;8123;50.906;6.172;2022-10-31T12:06:59;18.60;99.90
16038;DHT22;8123;50.906;6.172;2022-10-31T12:09:30;18.60;99.90
16038;DHT22;8123;50.906;6.172;2022-10-31T12:23:13;18.70;99.90
16038;DHT22;8123;50.906;6.172;2022-10-31T12:29:24;18.60;99.90
16038;DHT22;8123;50.906;6.172;2022-10-31T12:35:00;18.50;99.90
16038;DHT22;8123;50.906;6.172;2022-10-31T12:38:04;18.40;99.90
16038;DHT22;8123;50.906;6.172;2022-10-31T12:43:55;18.50;99.90
16038;DHT22;8123;50.906;6.172;2022-10-31T12:55:04;18.40;99.90
16038;DHT22;8123;50.906;6.172;2022-10-31T12:57:47;18.40;99.90
16038;DHT22;8123;50.906;6.172;2022-10-31T13:00:19;18.20;99.90
16038;DHT22;8123;50.906;6.172;2022-10-31T13:02:56;18.30;99.90
16038;DHT22;8123;50.906;6.172;2022-10-31T13:08:10;18.30;99.90
16038;DHT22;8123;50.906;6.172;2022-10-31T13:10:48;18.30;99.90
16038;DHT22;8123;50.906;6.172;2022-10-31T13:13:16;18.40;99.90
16038;DHT22;8123;50.906;6.172;2022-10-31T13:16:02;18.40;99.90
16038;DHT22;8123;50.906;6.172;2022-10-31T13:18:37;18.40;99.90
16038;DHT22;8123;50.906;6.172;2022-10-31T13:21:09;18.30;99.90
16038;DHT22;8123;50.906;6.172;2022-10-31T13:23:37;18.30;99.90
16038;DHT22;8123;50.906;6.172;2022-10-31T13:26:15;18.30;99.90
16038;DHT22;8123;50.906;6.172;2022-10-31T13:31:13;18.30;99.90
16038;DHT22;8123;50.906;6.172;2022-10-31T13:33:43;18.30;99.90
16038;DHT22;8123;50.906;6.172;2022-10-31T13:41:52;18.20;99.90
16038;DHT22;8123;50.906;6.172;2022-10-31T13:44:22;18.20;99.90
16038;DHT22;8123;50.906;6.172;2022-10-31T13:46:49;18.20;99.90
16038;DHT22;8123;50.906;6.172;2022-10-31T13:54:42;18.10;99.90
16038;DHT22;8123;50.906;6.172;2022-10-31T13:57:21;18.10;99.90
16038;DHT22;8123;50.906;6.172;2022-10-31T13:59:57;18.10;99.90
16038;DHT22;8123;50.906;6.172;2022-10-31T14:02:35;18.10;99.90
16038;DHT22;8123;50.906;6.172;2022-10-31T14:05:14;18.10;99.90
16038;DHT22;8123;50.906;6.172;2022-10-31T14:07:45;18.10;99.90
16038;DHT22;8123;50.906;6.172;2022-10-31T14:13:15;18.10;99.90
16038;DHT22;8123;50.906;6.172;2022-10-31T14:16:02;18.10;99.90
16038;DHT22;8123;50.906;6.172;2022-10-31T14:18:35;18.10;99.90
16038;DHT22;8123;50.906;6.172;2022-10-31T14:23:52;18.10;99.90
16038;DHT22;8123;50.906;6.172;2022-10-31T14:28:55;18.00;99.90
16038;DHT22;8123;50.906;6.172;2022-10-31T14:31:51;18.00;99.90
16038;DHT22;8123;50.906;6.172;2022-10-31T14:34:35;18.10;99.90
16038;DHT22;8123;50.906;6.172;2022-10-31T14:50:29;17.80;99.90
16038;DHT22;8123;50.906;6.172;2022-10-31T14:52:57;17.70;99.90
16038;DHT22;8123;50.906;6.172;2022-10-31T14:55:26;17.60;99.90
16038;DHT22;8123;50.906;6.172;2022-10-31T14:58:04;17.50;99.90
16038;DHT22;8123;50.906;6.172;2022-10-31T15:00:32;17.50;99.90
16038;DHT22;8123;50.906;6.172;2022-10-31T15:06:14;17.30;99.90
16038;DHT22;8123;50.906;6.172;2022-10-31T15:08:49;17.30;99.90
16038;DHT22;8123;50.906;6.172;2022-10-31T15:11:23;17.00;99.90
16038;DHT22;8123;50.906;6.172;2022-10-31T15:13:52;17.20;99.90
16038;DHT22;8123;50.906;6.172;2022-10-31T15:16:21;17.10;99.90
16038;DHT22;8123;50.906;6.172;2022-10-31T15:18:52;17.00;99.90
16038;DHT22;8123;50.906;6.172;2022-10-31T15:21:20;17.00;99.90
16038;DHT22;8123;50.906;6.172;2022-10-31T15:23:46;16.90;99.90
16038;DHT22;8123;50.906;6.172;2022-10-31T15:26:19;16.90;99.90
16038;DHT22;8123;50.906;6.172;2022-10-31T15:28:46;16.80;99.90
16038;DHT22;8123;50.906;6.172;2022-10-31T15:31:22;16.80;99.90
16038;DHT22;8123;50.906;6.172;2022-10-31T15:33:48;16.80;99.90
16038;DHT22;8123;50.906;6.172;2022-10-31T15:36:24;16.70;99.90
16038;DHT22;8123;50.906;6.172;2022-10-31T15:38:50;16.70;99.90
16038;DHT22;8123;50.906;6.172;2022-10-31T15:44:35;16.50;99.90
16038;DHT22;8123;50.906;6.172;2022-10-31T15:47:04;16.50;99.90
16038;DHT22;8123;50.906;6.172;2022-10-31T15:49:42;16.40;99.90
16038;DHT22;8123;50.906;6.172;2022-10-31T15:54:57;16.30;99.90
16038;DHT22;8123;50.906;6.172;2022-10-31T15:57:24;16.20;99.90
16038;DHT22;8123;50.906;6.172;2022-10-31T16:00:34;16.10;99.90
16038;DHT22;8123;50.906;6.172;2022-10-31T16:05:47;15.90;99.90
16038;DHT22;8123;50.906;6.172;2022-10-31T16:10:58;15.70;99.90
16038;DHT22;8123;50.906;6.172;2022-10-31T16:13:30;15.60;99.90
16038;DHT22;8123;50.906;6.172;2022-10-31T16:16:02;15.60;99.90
16038;DHT22;8123;50.906;6.172;2022-10-31T16:18:30;15.50;99.90
16038;DHT22;8123;50.906;6.172;2022-10-31T16:21:00;15.40;99.90
16038;DHT22;8123;50.906;6.172;2022-10-31T16:23:26;15.30;99.90
16038;DHT22;8123;50.906;6.172;2022-10-31T16:25:53;15.30;99.90
16038;DHT22;8123;50.906;6.172;2022-10-31T16:28:26;15.20;99.90
16038;DHT22;8123;50.906;6.172;2022-10-31T16:30:54;15.10;99.90
16038;DHT22;8123;50.906;6.172;2022-10-31T16:35:57;14.90;99.90
16038;DHT22;8123;50.906;6.172;2022-10-31T16:38:23;14.90;99.90
16038;DHT22;8123;50.906;6.172;2022-10-31T16:40:50;14.90;99.90
16038;DHT22;8123;50.906;6.172;2022-10-31T16:43:18;14.80;99.90
16038;DHT22;8123;50.906;6.172;2022-10-31T16:45:49;14.80;99.90
16038;DHT22;8123;50.906;6.172;2022-10-31T16:48:20;14.90;99.90
16038;DHT22;8123;50.906;6.172;2022-10-31T16:50:47;14.90;99.90
16038;DHT22;8123;50.906;6.172;2022-10-31T16:53:14;14.90;99.90
16038;DHT22;8123;50.906;6.172;2022-10-31T16:56:01;14.90;99.90
16038;DHT22;8123;50.906;6.172;2022-10-31T16:58:32;14.80;99.90
16038;DHT22;8123;50.906;6.172;2022-10-31T17:01:04;14.90;99.90
16038;DHT22;8123;50.906;6.172;2022-10-31T17:03:30;14.90;99.90
16038;DHT22;8123;50.906;6.172;2022-10-31T17:05:56;15.00;99.90
16038;DHT22;8123;50.906;6.172;2022-10-31T17:08:22;15.00;99.90
16038;DHT22;8123;50.906;6.172;2022-10-31T17:10:51;15.00;99.90
16038;DHT22;8123;50.906;6.172;2022-10-31T17:13:20;15.00;99.90
16038;DHT22;8123;50.906;6.172;2022-10-31T17:15:50;15.10;99.90
16038;DHT22;8123;50.906;6.172;2022-10-31T17:18:17;15.10;99.90
16038;DHT22;8123;50.906;6.172;2022-10-31T17:20:44;15.00;99.90
16038;DHT22;8123;50.906;6.172;2022-10-31T17:23:11;15.10;99.90
16038;DHT22;8123;50.906;6.172;2022-10-31T17:25:37;15.00;99.90
16038;DHT22;8123;50.906;6.172;2022-10-31T17:28:04;14.70;99.90
16038;DHT22;8123;50.906;6.172;2022-10-31T17:30:31;14.90;99.90
16038;DHT22;8123;50.906;6.172;2022-10-31T17:32:56;14.90;99.90
16038;DHT22;8123;50.906;6.172;2022-10-31T17:35:22;14.80;99.90
16038;DHT22;8123;50.906;6.172;2022-10-31T17:37:48;14.70;99.90
16038;DHT22;8123;50.906;6.172;2022-10-31T17:40:17;14.70;99.90
16038;DHT22;8123;50.906;6.172;2022-10-31T17:42:49;14.60;99.90
16038;DHT22;8123;50.906;6.172;2022-10-31T17:45:14;14.50;99.90
16038;DHT22;8123;50.906;6.172;2022-10-31T17:47:40;14.40;99.90
16038;DHT22;8123;50.906;6.172;2022-10-31T17:50:14;14.40;99.90
16038;DHT22;8123;50.906;6.172;2022-10-31T17:52:40;14.30;99.90
16038;DHT22;8123;50.906;6.172;2022-10-31T17:55:06;14.30;99.90
16038;DHT22;8123;50.906;6.172;2022-10-31T17:57:32;14.20;99.90
16038;DHT22;8123;50.906;6.172;2022-10-31T17:59:59;14.20;99.90
16038;DHT22;8123;50.906;6.172;2022-10-31T18:02:26;14.10;99.90
16038;DHT22;8123;50.906;6.172;2022-10-31T18:04:51;14.10;99.90
16038;DHT22;8123;50.906;6.172;2022-10-31T18:07:17;14.00;99.90
16038;DHT22;8123;50.906;6.172;2022-10-31T18:09:45;14.00;99.90
16038;DHT22;8123;50.906;6.172;2022-10-31T18:12:12;14.00;99.90
16038;DHT22;8123;50.906;6.172;2022-10-31T18:14:38;14.00;99.90
16038;DHT22;8123;50.906;6.172;2022-10-31T18:17:05;14.00;99.90
16038;DHT22;8123;50.906;6.172;2022-10-31T18:19:31;13.90;99.90
16038;DHT22;8123;50.906;6.172;2022-10-31T18:21:57;13.90;99.90
16038;DHT22;8123;50.906;6.172;2022-10-31T18:24:23;13.80;99.90
16038;DHT22;8123;50.906;6.172;2022-10-31T18:26:49;13.90;99.90
16038;DHT22;8123;50.906;6.172;2022-10-31T18:29:14;13.90;99.90
16038;DHT22;8123;50.906;6.172;2022-10-31T18:31:40;13.90;99.90
16038;DHT22;8123;50.906;6.172;2022-10-31T18:34:06;13.80;99.90
16038;DHT22;8123;50.906;6.172;2022-10-31T18:36:32;13.80;99.90